createdAt,value
2018-05-31T00:01:57.068Z,9.97
2018-05-31T00:04:26.138Z,10.90
2018-05-31T00:06:57.133Z,11.07
2018-05-31T00:09:26.232Z,10.70
2018-05-31T00:17:13.210Z,10.88
2018-05-31T00:20:00.902Z,11.87
2018-05-31T00:22:33.140Z,10.63
2018-05-31T00:30:15.573Z,11.30
2018-05-31T00:35:21.403Z,10.35
2018-05-31T00:37:53.876Z,10.65
2018-05-31T00:40:22.995Z,9.60
2018-05-31T00:42:54.014Z,9.40
2018-05-31T00:45:24.025Z,11.17
2018-05-31T00:48:00.816Z,10.43
2018-05-31T00:50:29.896Z,9.90
2018-05-31T00:52:58.965Z,8.77
2018-05-31T00:55:46.842Z,8.77
2018-05-31T00:58:15.949Z,10.60
2018-05-31T01:03:20.786Z,11.40
2018-05-31T01:05:53.149Z,11.13
2018-05-31T01:08:23.136Z,10.20
2018-05-31T01:10:55.741Z,9.60
2018-05-31T01:13:24.836Z,9.40
2018-05-31T01:18:29.616Z,12.50
2018-05-31T01:20:58.686Z,12.80
2018-05-31T01:23:27.776Z,12.80
2018-05-31T01:25:56.857Z,12.63
2018-05-31T01:28:25.930Z,9.20
2018-05-31T01:30:54.987Z,8.90
2018-05-31T01:33:24.039Z,8.13
2018-05-31T01:35:53.165Z,8.37
2018-05-31T01:41:11.150Z,9.55
2018-05-31T01:44:06.112Z,10.93
2018-05-31T01:46:43.296Z,9.37
2018-05-31T01:49:12.369Z,8.83
2018-05-31T01:54:19.661Z,10.25
2018-05-31T01:56:52.447Z,9.85
2018-05-31T01:59:21.535Z,8.80
2018-05-31T02:04:27.369Z,9.90
2018-05-31T02:06:58.350Z,9.70
2018-05-31T02:09:27.431Z,9.00
2018-05-31T02:16:44.162Z,9.70
2018-05-31T02:19:13.196Z,9.60
2018-05-31T02:21:42.280Z,9.10
2018-05-31T02:24:11.360Z,8.67
2018-05-31T02:26:42.337Z,8.93
2018-05-31T02:29:12.335Z,8.77
2018-05-31T02:34:27.470Z,8.70
2018-05-31T02:36:56.545Z,8.70
2018-05-31T02:39:26.518Z,8.63
2018-05-31T02:41:55.581Z,8.80
2018-05-31T02:44:24.685Z,9.83
2018-05-31T02:46:53.752Z,9.10
2018-05-31T02:49:25.919Z,9.30
2018-05-31T02:51:55.046Z,8.50
2018-05-31T02:54:24.153Z,8.57
2018-05-31T02:56:53.239Z,8.10
2018-05-31T03:01:58.493Z,9.60
2018-05-31T03:04:34.816Z,9.20
2018-05-31T03:07:03.883Z,9.17
2018-05-31T03:09:35.984Z,9.70
2018-05-31T03:12:29.637Z,8.30
2018-05-31T03:14:58.728Z,9.67
2018-05-31T03:17:35.817Z,8.57
2018-05-31T03:20:06.810Z,9.13
2018-05-31T03:22:43.986Z,9.97
2018-05-31T03:25:15.120Z,9.50
2018-05-31T03:27:44.187Z,9.20
2018-05-31T03:30:13.265Z,9.40
2018-05-31T03:32:42.359Z,10.30
2018-05-31T03:35:11.467Z,10.93
2018-05-31T03:37:41.482Z,9.93
2018-05-31T03:42:46.466Z,10.00
2018-05-31T03:47:54.272Z,11.82
2018-05-31T03:50:23.347Z,10.73
2018-05-31T03:52:53.333Z,10.07
2018-05-31T03:55:23.307Z,10.33
2018-05-31T03:57:52.377Z,8.97
2018-05-31T04:00:29.663Z,8.93
2018-05-31T04:02:58.754Z,8.97
2018-05-31T04:05:30.199Z,11.80
2018-05-31T04:07:59.274Z,12.10
2018-05-31T04:10:42.282Z,11.57
2018-05-31T04:15:51.024Z,11.60
2018-05-31T04:18:42.157Z,10.30
2018-05-31T04:21:19.386Z,9.13
2018-05-31T04:23:48.505Z,9.87
2018-05-31T04:26:18.075Z,9.53
2018-05-31T04:28:47.775Z,8.70
2018-05-31T04:31:21.965Z,10.20
2018-05-31T04:33:51.018Z,8.93
2018-05-31T04:38:55.882Z,10.90
2018-05-31T04:41:28.122Z,9.53
2018-05-31T04:43:57.498Z,10.73
2018-05-31T04:46:35.617Z,9.57
2018-05-31T04:54:19.099Z,10.93
2018-05-31T04:56:48.163Z,10.90
2018-05-31T04:59:21.453Z,9.27
2018-05-31T05:01:50.806Z,10.40
2018-05-31T05:04:30.241Z,9.23
2018-05-31T05:06:59.621Z,9.20
2018-05-31T05:09:33.286Z,9.47
2018-05-31T05:12:02.346Z,9.67
2018-05-31T05:14:34.730Z,8.90
2018-05-31T05:17:08.605Z,9.33
2018-05-31T05:19:38.692Z,8.40
2018-05-31T05:24:43.940Z,11.50
2018-05-31T05:29:49.375Z,8.53
2018-05-31T05:32:35.103Z,8.63
2018-05-31T05:35:05.075Z,8.10
2018-05-31T05:37:43.030Z,7.83
2018-05-31T05:40:29.458Z,8.43
2018-05-31T05:42:58.605Z,8.10
2018-05-31T05:45:28.618Z,7.53
2018-05-31T05:47:57.683Z,8.37
2018-05-31T05:53:02.997Z,7.22
2018-05-31T05:55:32.105Z,6.33
2018-05-31T05:58:01.158Z,6.00
2018-05-31T06:00:30.216Z,6.67
2018-05-31T06:02:59.268Z,6.43
2018-05-31T06:05:28.305Z,7.83
2018-05-31T06:10:33.785Z,8.00
2018-05-31T06:13:02.835Z,6.27
2018-05-31T06:15:32.279Z,5.93
2018-05-31T06:18:01.335Z,6.53
2018-05-31T06:20:30.872Z,6.90
2018-05-31T06:22:59.945Z,6.37
2018-05-31T06:25:29.152Z,6.75
2018-05-31T06:27:58.194Z,6.47
2018-05-31T06:30:27.253Z,5.80
2018-05-31T06:32:56.303Z,6.10
2018-05-31T06:35:26.213Z,6.03
2018-05-31T06:37:56.113Z,5.30
2018-05-31T06:40:25.844Z,6.00
2018-05-31T06:42:55.134Z,5.87
2018-05-31T06:45:24.137Z,5.13
2018-05-31T06:47:53.637Z,5.43
2018-05-31T06:50:22.699Z,5.87
2018-05-31T06:52:56.090Z,6.03
2018-05-31T06:55:25.768Z,5.60
2018-05-31T06:57:55.733Z,5.60
2018-05-31T07:00:24.797Z,5.50
2018-05-31T07:02:54.657Z,6.62
2018-05-31T07:05:23.708Z,6.30
2018-05-31T07:07:53.345Z,5.95
2018-05-31T07:10:22.402Z,6.20
2018-05-31T07:12:52.419Z,6.83
2018-05-31T07:15:21.462Z,5.80
2018-05-31T07:17:51.162Z,6.60
2018-05-31T07:20:20.226Z,6.03
2018-05-31T07:25:25.017Z,6.87
2018-05-31T07:27:55.499Z,6.82
2018-05-31T07:30:34.517Z,6.17
2018-05-31T07:33:05.683Z,6.90
2018-05-31T07:35:38.465Z,7.05
2018-05-31T07:38:11.055Z,7.80
2018-05-31T07:43:27.139Z,8.10
2018-05-31T07:46:05.646Z,7.07
2018-05-31T07:48:42.169Z,7.60
2018-05-31T07:53:57.003Z,6.70
2018-05-31T07:56:35.927Z,7.43
2018-05-31T07:59:05.919Z,7.20
2018-05-31T08:01:35.155Z,7.20
2018-05-31T08:04:06.698Z,7.50
2018-05-31T08:06:36.335Z,7.85
2018-05-31T08:09:08.524Z,6.83
2018-05-31T08:11:38.066Z,7.70
2018-05-31T08:14:08.485Z,8.27
2018-05-31T08:16:39.938Z,8.27
2018-05-31T08:19:11.927Z,8.03
2018-05-31T08:21:43.297Z,9.37
2018-05-31T08:24:14.860Z,9.10
2018-05-31T08:29:22.317Z,10.20
2018-05-31T08:31:53.717Z,9.77
2018-05-31T08:34:26.265Z,9.47
2018-05-31T08:37:03.497Z,9.07
2018-05-31T08:44:45.659Z,9.40
2018-05-31T08:47:14.697Z,9.47
2018-05-31T08:49:47.075Z,9.97
2018-05-31T08:52:16.138Z,10.70
2018-05-31T08:57:21.798Z,10.50
2018-05-31T08:59:50.845Z,11.38
2018-05-31T09:02:20.500Z,10.63
2018-05-31T09:04:49.556Z,11.73
2018-05-31T09:07:19.349Z,10.93
2018-05-31T09:09:48.414Z,12.23
2018-05-31T09:12:17.982Z,11.13
2018-05-31T09:14:48.034Z,10.87
2018-05-31T09:17:17.487Z,11.27
2018-05-31T09:19:46.554Z,11.27
2018-05-31T09:22:16.633Z,11.00
2018-05-31T09:24:46.088Z,11.80
2018-05-31T09:27:16.617Z,11.47
2018-05-31T09:29:45.777Z,10.70
2018-05-31T09:32:16.570Z,10.60
2018-05-31T09:34:45.672Z,10.97
2018-05-31T09:37:17.939Z,10.23
2018-05-31T09:39:51.155Z,10.70
2018-05-31T09:42:23.762Z,11.00
2018-05-31T09:44:56.468Z,11.33
2018-05-31T09:47:28.045Z,10.13
2018-05-31T09:50:00.113Z,10.40
2018-05-31T09:52:32.616Z,11.20
2018-05-31T09:55:05.228Z,11.10
2018-05-31T09:57:37.553Z,10.30
2018-05-31T10:00:10.469Z,11.07
2018-05-31T10:02:42.814Z,12.10
2018-05-31T10:05:14.763Z,11.13
2018-05-31T10:07:47.402Z,10.30
2018-05-31T10:10:19.336Z,9.87
2018-05-31T10:15:27.917Z,10.50
2018-05-31T10:18:01.080Z,10.00
2018-05-31T10:20:35.079Z,9.63
2018-05-31T10:25:44.140Z,11.27
2018-05-31T10:28:16.106Z,9.60
2018-05-31T10:30:48.894Z,9.10
2018-05-31T10:33:21.011Z,9.00
2018-05-31T10:35:51.788Z,7.90
2018-05-31T10:38:23.998Z,8.80
2018-05-31T10:40:56.536Z,7.10
2018-05-31T10:43:27.119Z,6.47
2018-05-31T10:45:59.633Z,6.60
2018-05-31T10:48:31.976Z,8.00
2018-05-31T10:51:03.491Z,7.40
2018-05-31T10:53:35.594Z,8.80
2018-05-31T10:56:08.244Z,8.50
2018-05-31T10:58:38.002Z,7.23
2018-05-31T11:01:07.045Z,8.10
2018-05-31T11:03:36.097Z,8.90
2018-05-31T11:06:05.151Z,9.10
2018-05-31T11:08:34.985Z,7.70
2018-05-31T11:11:08.987Z,7.70
2018-05-31T11:13:40.442Z,9.10
2018-05-31T11:16:13.545Z,7.60
2018-05-31T11:21:25.411Z,8.00
2018-05-31T11:23:57.936Z,7.20
2018-05-31T11:26:33.680Z,7.30
2018-05-31T11:29:05.769Z,7.40
2018-05-31T11:31:39.049Z,7.72
2018-05-31T11:34:11.398Z,8.88
2018-05-31T11:36:44.492Z,9.27
2018-05-31T11:39:13.991Z,8.50
2018-05-31T11:44:22.637Z,8.20
2018-05-31T11:49:31.649Z,7.95
2018-05-31T11:52:05.335Z,7.00
2018-05-31T11:54:38.622Z,7.17
2018-05-31T11:57:11.015Z,6.27
2018-05-31T11:59:44.299Z,7.33
2018-05-31T12:02:17.100Z,8.00
2018-05-31T12:04:50.135Z,8.47
2018-05-31T12:07:21.686Z,7.17
2018-05-31T12:09:55.010Z,7.10
2018-05-31T12:12:27.747Z,7.07
2018-05-31T12:15:02.276Z,7.47
2018-05-31T12:17:35.764Z,7.47
2018-05-31T12:20:09.310Z,7.80
2018-05-31T12:22:41.391Z,7.10
2018-05-31T12:25:13.848Z,7.65
2018-05-31T12:27:50.200Z,7.60
2018-05-31T12:30:22.327Z,6.23
2018-05-31T12:32:54.336Z,8.03
2018-05-31T12:35:27.088Z,7.53
2018-05-31T12:37:59.664Z,7.28
2018-05-31T12:40:32.301Z,7.40
2018-05-31T12:43:06.014Z,6.87
2018-05-31T12:45:41.691Z,7.90
2018-05-31T12:48:15.811Z,8.32
2018-05-31T12:50:48.513Z,6.37
2018-05-31T12:53:20.444Z,6.80
2018-05-31T12:55:53.890Z,6.60
2018-05-31T12:58:26.739Z,6.20
2018-05-31T13:03:36.773Z,6.10
2018-05-31T13:06:10.768Z,5.87
2018-05-31T13:08:44.528Z,5.50
2018-05-31T13:11:18.362Z,7.00
2018-05-31T13:13:51.772Z,6.57
2018-05-31T13:16:26.747Z,6.20
2018-05-31T13:18:59.620Z,5.67
2018-05-31T13:24:17.079Z,6.87
2018-05-31T13:26:49.550Z,6.40
2018-05-31T13:29:21.577Z,5.40
2018-05-31T13:31:56.377Z,7.40
2018-05-31T13:34:29.795Z,5.87
2018-05-31T13:37:03.752Z,6.15
2018-05-31T13:39:36.356Z,6.10
2018-05-31T13:42:09.158Z,5.63
2018-05-31T13:44:52.598Z,4.97
2018-05-31T13:47:37.795Z,5.77
2018-05-31T13:50:20.916Z,6.40
2018-05-31T13:53:03.942Z,6.87
2018-05-31T13:55:45.496Z,6.65
2018-05-31T13:58:29.141Z,6.60
2018-05-31T14:01:13.518Z,5.70
2018-05-31T14:03:59.704Z,6.30
2018-05-31T14:06:43.603Z,6.57
2018-05-31T14:09:30.268Z,6.17
2018-05-31T14:12:16.440Z,5.30
2018-05-31T14:15:01.642Z,5.80
2018-05-31T14:17:40.507Z,6.00
2018-05-31T14:20:23.903Z,5.63
2018-05-31T14:25:51.136Z,5.65
2018-05-31T14:28:30.132Z,4.57
2018-05-31T14:31:11.207Z,5.55
2018-05-31T14:33:55.092Z,5.77
2018-05-31T14:39:27.266Z,6.22
2018-05-31T14:44:49.662Z,6.60
2018-05-31T14:47:32.767Z,5.80
2018-05-31T14:52:56.433Z,7.40
2018-05-31T14:55:31.327Z,7.80
2018-05-31T14:58:10.573Z,7.73
2018-05-31T15:00:45.658Z,7.40
2018-05-31T15:03:19.126Z,8.10
2018-05-31T15:05:54.649Z,7.80
2018-05-31T15:08:28.013Z,7.40
2018-05-31T15:11:02.478Z,8.13
2018-05-31T15:13:36.049Z,8.00
2018-05-31T15:16:10.430Z,9.40
2018-05-31T15:21:21.482Z,10.20
2018-05-31T15:23:56.265Z,9.57
2018-05-31T15:26:29.102Z,9.70
2018-05-31T15:29:02.642Z,9.63
2018-05-31T15:31:35.955Z,9.47
2018-05-31T15:36:43.200Z,10.70
2018-05-31T15:39:15.150Z,10.33
2018-05-31T15:41:49.723Z,10.07
2018-05-31T15:44:18.757Z,10.63
2018-05-31T15:46:48.195Z,10.20
2018-05-31T15:49:17.662Z,10.43
2018-05-31T15:51:46.800Z,10.97
2018-05-31T15:54:16.803Z,11.33
2018-05-31T15:56:46.794Z,10.97
2018-05-31T15:59:16.614Z,11.40
2018-05-31T16:01:46.178Z,13.27
2018-05-31T16:04:16.075Z,14.37
2018-05-31T16:06:45.609Z,19.50
2018-05-31T16:09:15.323Z,10.50
2018-05-31T16:11:45.595Z,11.12
2018-05-31T16:14:15.632Z,10.10
2018-05-31T16:16:45.439Z,10.27
2018-05-31T16:19:15.649Z,9.87
2018-05-31T16:21:45.328Z,9.67
2018-05-31T16:24:15.515Z,10.10
2018-05-31T16:26:45.576Z,9.97
2018-05-31T16:29:15.707Z,8.20
2018-05-31T16:34:21.659Z,8.10
2018-05-31T16:36:50.744Z,9.00
2018-05-31T16:39:20.204Z,7.83
2018-05-31T16:44:25.502Z,8.15
2018-05-31T16:46:55.466Z,9.40
2018-05-31T16:49:24.562Z,9.30
2018-05-31T16:51:54.691Z,9.70
2018-05-31T16:54:23.718Z,9.73
2018-05-31T16:59:28.910Z,11.82
2018-05-31T17:01:57.980Z,11.23
2018-05-31T17:04:27.862Z,10.67
2018-05-31T17:06:56.930Z,9.83
2018-05-31T17:09:26.393Z,9.47
2018-05-31T17:11:55.473Z,8.20
2018-05-31T17:14:24.537Z,8.30
2018-05-31T17:16:53.677Z,10.32
2018-05-31T17:19:22.738Z,8.43
2018-05-31T17:21:52.134Z,10.40
2018-05-31T17:24:21.281Z,6.70
2018-05-31T17:29:26.259Z,5.90
2018-05-31T17:31:55.327Z,5.00
2018-05-31T17:34:24.706Z,4.20
2018-05-31T17:36:53.759Z,4.57
2018-05-31T17:39:23.250Z,4.13
2018-05-31T17:41:52.293Z,5.97
2018-05-31T17:44:21.350Z,6.93
2018-05-31T17:46:50.416Z,8.00
2018-05-31T17:49:19.475Z,7.97
2018-05-31T17:51:49.349Z,9.27
2018-05-31T17:54:18.936Z,9.70
2018-05-31T17:56:48.322Z,10.10
2018-05-31T17:59:17.434Z,9.00
2018-05-31T18:04:23.350Z,11.50
2018-05-31T18:06:53.761Z,9.43
2018-05-31T18:09:22.794Z,8.50
2018-05-31T18:11:52.689Z,10.40
2018-05-31T18:14:21.805Z,10.33
2018-05-31T18:16:51.686Z,9.20
2018-05-31T18:19:20.749Z,9.83
2018-05-31T18:21:49.801Z,9.60
2018-05-31T18:24:18.898Z,11.23
2018-05-31T18:26:48.022Z,13.77
2018-05-31T18:29:17.346Z,11.57
2018-05-31T18:31:46.401Z,13.18
2018-05-31T18:34:16.985Z,11.07
2018-05-31T18:36:46.042Z,11.37
2018-05-31T18:39:15.896Z,10.93
2018-05-31T18:41:44.945Z,12.63
2018-05-31T18:44:15.685Z,10.37
2018-05-31T18:46:45.014Z,8.90
2018-05-31T18:49:15.348Z,8.90
2018-05-31T18:51:44.401Z,7.80
2018-05-31T18:54:14.704Z,8.23
2018-05-31T18:56:43.743Z,7.30
2018-05-31T18:59:14.134Z,7.43
2018-05-31T19:01:43.492Z,8.40
2018-05-31T19:06:48.401Z,7.73
2018-05-31T19:09:23.135Z,7.20
2018-05-31T19:11:53.862Z,6.83
2018-05-31T19:14:22.921Z,6.00
2018-05-31T19:16:52.602Z,5.30
2018-05-31T19:19:27.231Z,4.73
2018-05-31T19:24:48.584Z,4.80
2018-05-31T19:27:29.360Z,4.53
2018-05-31T19:30:13.574Z,3.47
2018-05-31T19:32:55.696Z,3.87
2018-05-31T19:38:20.560Z,4.10
2018-05-31T19:40:59.432Z,3.57
2018-05-31T19:43:41.243Z,3.60
2018-05-31T19:46:20.303Z,3.10
2018-05-31T19:49:00.746Z,2.80
2018-05-31T19:51:42.738Z,2.90
2018-05-31T19:57:03.153Z,3.40
2018-05-31T19:59:48.185Z,2.97
2018-05-31T20:02:34.108Z,2.53
2018-05-31T20:05:14.324Z,2.70
2018-05-31T20:13:21.724Z,3.30
2018-05-31T20:18:40.973Z,3.95
2018-05-31T20:21:21.637Z,3.30
2018-05-31T20:23:58.583Z,3.60
2018-05-31T20:26:40.962Z,4.43
2018-05-31T20:29:24.055Z,3.00
2018-05-31T20:32:05.105Z,3.27
2018-05-31T20:34:46.245Z,3.60
2018-05-31T20:37:28.549Z,3.53
2018-05-31T20:40:06.310Z,3.13
2018-05-31T20:42:46.098Z,4.32
2018-05-31T20:45:28.689Z,3.43
2018-05-31T20:48:11.187Z,6.10
2018-05-31T20:50:54.952Z,17.10
2018-05-31T20:53:35.043Z,4.43
2018-05-31T20:58:56.527Z,4.20
2018-05-31T21:01:38.986Z,3.80
2018-05-31T21:06:56.582Z,3.70
2018-05-31T21:09:37.523Z,3.80
2018-05-31T21:12:18.283Z,3.13
2018-05-31T21:15:00.892Z,3.17
2018-05-31T21:17:43.429Z,3.67
2018-05-31T21:20:26.025Z,3.97
2018-05-31T21:23:09.225Z,3.90
2018-05-31T21:25:52.636Z,32.57
2018-05-31T21:28:34.337Z,5.60
2018-05-31T21:33:59.126Z,5.90
2018-05-31T21:36:42.307Z,4.77
2018-05-31T21:42:07.630Z,5.70
2018-05-31T21:44:49.378Z,5.47
2018-05-31T21:47:31.750Z,6.10
2018-05-31T21:50:12.706Z,5.70
2018-05-31T21:52:52.737Z,5.60
2018-05-31T21:55:32.490Z,4.70
2018-05-31T21:58:03.081Z,4.60
2018-05-31T22:03:24.952Z,5.50
2018-05-31T22:05:54.818Z,4.65
2018-05-31T22:08:23.873Z,5.17
2018-05-31T22:10:53.548Z,4.83
2018-05-31T22:13:22.617Z,4.90
2018-05-31T22:15:52.761Z,5.23
2018-05-31T22:18:21.826Z,4.93
2018-05-31T22:20:51.760Z,5.40
2018-05-31T22:23:20.814Z,6.40
2018-05-31T22:25:50.638Z,6.40
2018-05-31T22:28:19.692Z,5.33
2018-05-31T22:33:24.697Z,5.10
2018-05-31T22:38:32.720Z,4.40
2018-05-31T22:41:01.757Z,4.60
2018-05-31T22:43:30.991Z,4.60
2018-05-31T22:46:00.087Z,4.60
2018-05-31T22:48:30.290Z,4.90
2018-05-31T22:53:36.856Z,5.67
2018-05-31T22:56:05.902Z,5.37
2018-05-31T23:01:11.605Z,5.40
2018-05-31T23:03:40.670Z,5.57
2018-05-31T23:06:10.290Z,4.73
2018-05-31T23:11:15.145Z,6.10
2018-05-31T23:13:44.202Z,7.10
2018-05-31T23:18:49.376Z,7.00
2018-05-31T23:21:18.465Z,6.07
2018-05-31T23:26:23.263Z,8.03
2018-05-31T23:28:53.030Z,6.30
2018-05-31T23:31:22.103Z,6.70
2018-05-31T23:33:52.214Z,6.50
2018-05-31T23:36:21.266Z,7.83
2018-05-31T23:38:50.332Z,8.00
2018-05-31T23:41:19.375Z,7.43
2018-05-31T23:43:49.174Z,8.27
2018-05-31T23:46:18.219Z,7.20
2018-05-31T23:48:48.129Z,7.63
2018-05-31T23:51:17.206Z,7.72
2018-05-31T23:53:47.401Z,8.55
2018-05-31T23:56:16.554Z,7.30
2018-05-31T23:58:47.989Z,7.83
